Terminal Aerodrome Forecast
Issued by NWS

Home | Current Version | Previous Version | Text Only | Print | Product List | Glossary On
Versions: 1 2 3 4 5 6 7 8 9 10 11 12 13 14 15 16 17 18 19 20 21 22 23 24 25
000
FTUS45 KPSR 031449 AAA
TAFPHX
TAF AMD
KPHX 031449Z 0315/0412 09005KT P6SM SKC
     FM032100 27012G18KT P6SM SKC
     FM040300 29007KT P6SM SKC
     FM040800 09005KT P6SM FEW200=

USA.gov is the U.S. government's official web portal to all federal, state and local government web resources and services.